sensor_id;sensor_type;location;lat;lon;timestamp;P1;durP1;ratioP1;P2;durP2;ratioP2
11568;SDS011;5840;46.894;15.542;2022-08-03T00:00:13;6.30;;;5.80;;
11568;SDS011;5840;46.894;15.542;2022-08-03T00:02:40;6.57;;;6.07;;
11568;SDS011;5840;46.894;15.542;2022-08-03T00:05:07;6.20;;;5.80;;
11568;SDS011;5840;46.894;15.542;2022-08-03T00:07:35;6.33;;;5.83;;
11568;SDS011;5840;46.894;15.542;2022-08-03T00:10:04;5.93;;;5.53;;
11568;SDS011;5840;46.894;15.542;2022-08-03T00:12:31;6.13;;;5.63;;
11568;SDS011;5840;46.894;15.542;2022-08-03T00:15:00;5.37;;;5.07;;
11568;SDS011;5840;46.894;15.542;2022-08-03T00:17:27;5.67;;;5.20;;
11568;SDS011;5840;46.894;15.542;2022-08-03T00:19:54;4.73;;;4.53;;
11568;SDS011;5840;46.894;15.542;2022-08-03T00:22:21;5.17;;;4.87;;
11568;SDS011;5840;46.894;15.542;2022-08-03T00:24:49;5.67;;;5.37;;
11568;SDS011;5840;46.894;15.542;2022-08-03T00:27:16;6.57;;;6.03;;
11568;SDS011;5840;46.894;15.542;2022-08-03T00:29:43;5.80;;;5.40;;
11568;SDS011;5840;46.894;15.542;2022-08-03T00:32:10;6.37;;;5.87;;
11568;SDS011;5840;46.894;15.542;2022-08-03T00:34:37;5.97;;;5.57;;
11568;SDS011;5840;46.894;15.542;2022-08-03T00:37:03;5.57;;;5.20;;
11568;SDS011;5840;46.894;15.542;2022-08-03T00:39:30;5.30;;;5.00;;
11568;SDS011;5840;46.894;15.542;2022-08-03T00:42:01;5.33;;;5.00;;
11568;SDS011;5840;46.894;15.542;2022-08-03T00:44:29;5.43;;;5.03;;
11568;SDS011;5840;46.894;15.542;2022-08-03T00:46:56;5.50;;;5.10;;
11568;SDS011;5840;46.894;15.542;2022-08-03T00:49:23;5.60;;;5.20;;
11568;SDS011;5840;46.894;15.542;2022-08-03T00:51:50;5.40;;;5.00;;
11568;SDS011;5840;46.894;15.542;2022-08-03T00:54:17;5.10;;;4.80;;
11568;SDS011;5840;46.894;15.542;2022-08-03T00:56:45;5.07;;;4.70;;
11568;SDS011;5840;46.894;15.542;2022-08-03T00:59:14;5.00;;;4.60;;
11568;SDS011;5840;46.894;15.542;2022-08-03T01:01:41;6.70;;;5.10;;
11568;SDS011;5840;46.894;15.542;2022-08-03T01:04:08;5.27;;;4.97;;
11568;SDS011;5840;46.894;15.542;2022-08-03T01:06:38;5.40;;;5.00;;
11568;SDS011;5840;46.894;15.542;2022-08-03T01:09:11;5.63;;;5.17;;
11568;SDS011;5840;46.894;15.542;2022-08-03T01:11:48;5.40;;;4.90;;
11568;SDS011;5840;46.894;15.542;2022-08-03T01:14:23;6.17;;;5.57;;
11568;SDS011;5840;46.894;15.542;2022-08-03T01:16:54;5.47;;;5.07;;
11568;SDS011;5840;46.894;15.542;2022-08-03T01:19:35;6.27;;;5.40;;
11568;SDS011;5840;46.894;15.542;2022-08-03T01:22:15;5.47;;;5.00;;
11568;SDS011;5840;46.894;15.542;2022-08-03T01:24:55;5.30;;;5.00;;
11568;SDS011;5840;46.894;15.542;2022-08-03T01:27:25;5.90;;;5.40;;
11568;SDS011;5840;46.894;15.542;2022-08-03T01:30:02;5.37;;;4.87;;
11568;SDS011;5840;46.894;15.542;2022-08-03T01:32:36;5.90;;;5.40;;
11568;SDS011;5840;46.894;15.542;2022-08-03T01:35:08;5.73;;;5.33;;
11568;SDS011;5840;46.894;15.542;2022-08-03T01:37:39;6.07;;;5.67;;
11568;SDS011;5840;46.894;15.542;2022-08-03T01:40:10;5.90;;;5.40;;
11568;SDS011;5840;46.894;15.542;2022-08-03T01:42:40;5.03;;;4.63;;
11568;SDS011;5840;46.894;15.542;2022-08-03T01:45:11;5.57;;;5.17;;
11568;SDS011;5840;46.894;15.542;2022-08-03T01:47:42;5.47;;;5.07;;
11568;SDS011;5840;46.894;15.542;2022-08-03T01:50:11;4.80;;;4.50;;
11568;SDS011;5840;46.894;15.542;2022-08-03T01:52:40;5.17;;;4.87;;
11568;SDS011;5840;46.894;15.542;2022-08-03T01:55:09;5.33;;;4.87;;
11568;SDS011;5840;46.894;15.542;2022-08-03T01:57:38;4.90;;;4.60;;
11568;SDS011;5840;46.894;15.542;2022-08-03T02:00:08;4.87;;;4.57;;
11568;SDS011;5840;46.894;15.542;2022-08-03T02:02:38;5.03;;;4.63;;
11568;SDS011;5840;46.894;15.542;2022-08-03T02:05:08;5.73;;;5.23;;
11568;SDS011;5840;46.894;15.542;2022-08-03T02:07:36;5.07;;;4.67;;
11568;SDS011;5840;46.894;15.542;2022-08-03T02:10:07;5.37;;;4.93;;
11568;SDS011;5840;46.894;15.542;2022-08-03T02:12:38;5.30;;;4.90;;
11568;SDS011;5840;46.894;15.542;2022-08-03T02:15:05;5.53;;;5.13;;
11568;SDS011;5840;46.894;15.542;2022-08-03T02:17:35;5.90;;;5.33;;
11568;SDS011;5840;46.894;15.542;2022-08-03T02:20:03;5.80;;;5.50;;
11568;SDS011;5840;46.894;15.542;2022-08-03T02:22:32;6.00;;;5.60;;
11568;SDS011;5840;46.894;15.542;2022-08-03T02:25:00;5.80;;;5.40;;
11568;SDS011;5840;46.894;15.542;2022-08-03T02:27:27;5.23;;;4.93;;
11568;SDS011;5840;46.894;15.542;2022-08-03T02:30:04;5.70;;;5.30;;
11568;SDS011;5840;46.894;15.542;2022-08-03T02:32:36;5.07;;;4.77;;
11568;SDS011;5840;46.894;15.542;2022-08-03T02:35:06;5.63;;;5.17;;
11568;SDS011;5840;46.894;15.542;2022-08-03T02:37:41;5.40;;;5.00;;
11568;SDS011;5840;46.894;15.542;2022-08-03T02:40:12;5.30;;;5.00;;
11568;SDS011;5840;46.894;15.542;2022-08-03T02:42:40;5.60;;;5.10;;
11568;SDS011;5840;46.894;15.542;2022-08-03T02:45:09;5.63;;;5.23;;
11568;SDS011;5840;46.894;15.542;2022-08-03T02:47:40;5.90;;;5.50;;
11568;SDS011;5840;46.894;15.542;2022-08-03T02:50:09;5.37;;;4.97;;
11568;SDS011;5840;46.894;15.542;2022-08-03T02:52:38;5.00;;;4.70;;
11568;SDS011;5840;46.894;15.542;2022-08-03T02:55:07;5.87;;;5.37;;
11568;SDS011;5840;46.894;15.542;2022-08-03T02:57:36;5.47;;;5.17;;
11568;SDS011;5840;46.894;15.542;2022-08-03T03:00:04;5.03;;;4.63;;
11568;SDS011;5840;46.894;15.542;2022-08-03T03:02:33;5.13;;;4.83;;
11568;SDS011;5840;46.894;15.542;2022-08-03T03:05:02;5.40;;;5.00;;
11568;SDS011;5840;46.894;15.542;2022-08-03T03:07:30;5.27;;;4.77;;
11568;SDS011;5840;46.894;15.542;2022-08-03T03:09:57;5.70;;;5.07;;
11568;SDS011;5840;46.894;15.542;2022-08-03T03:12:25;5.20;;;4.90;;
11568;SDS011;5840;46.894;15.542;2022-08-03T03:14:54;5.83;;;5.20;;
11568;SDS011;5840;46.894;15.542;2022-08-03T03:17:21;5.43;;;4.93;;
11568;SDS011;5840;46.894;15.542;2022-08-03T03:19:51;5.10;;;4.77;;
11568;SDS011;5840;46.894;15.542;2022-08-03T03:22:21;5.30;;;4.97;;
11568;SDS011;5840;46.894;15.542;2022-08-03T03:24:49;6.20;;;5.77;;
11568;SDS011;5840;46.894;15.542;2022-08-03T03:27:18;6.80;;;4.80;;
11568;SDS011;5840;46.894;15.542;2022-08-03T03:29:46;5.37;;;5.07;;
11568;SDS011;5840;46.894;15.542;2022-08-03T03:32:14;6.33;;;5.83;;
11568;SDS011;5840;46.894;15.542;2022-08-03T03:34:41;6.90;;;6.00;;
11568;SDS011;5840;46.894;15.542;2022-08-03T03:37:08;5.87;;;5.37;;
11568;SDS011;5840;46.894;15.542;2022-08-03T03:39:37;5.40;;;5.10;;
11568;SDS011;5840;46.894;15.542;2022-08-03T03:42:04;6.00;;;5.53;;
11568;SDS011;5840;46.894;15.542;2022-08-03T03:44:31;5.47;;;4.97;;
11568;SDS011;5840;46.894;15.542;2022-08-03T03:46:58;5.67;;;5.37;;
11568;SDS011;5840;46.894;15.542;2022-08-03T03:49:25;6.17;;;5.70;;
11568;SDS011;5840;46.894;15.542;2022-08-03T03:51:52;6.10;;;5.70;;
11568;SDS011;5840;46.894;15.542;2022-08-03T03:54:20;6.33;;;5.93;;
11568;SDS011;5840;46.894;15.542;2022-08-03T03:56:48;5.93;;;5.43;;
11568;SDS011;5840;46.894;15.542;2022-08-03T03:59:15;5.80;;;5.40;;
11568;SDS011;5840;46.894;15.542;2022-08-03T04:01:42;5.60;;;5.10;;
11568;SDS011;5840;46.894;15.542;2022-08-03T04:04:09;5.93;;;5.40;;
11568;SDS011;5840;46.894;15.542;2022-08-03T04:06:53;5.73;;;5.33;;
11568;SDS011;5840;46.894;15.542;2022-08-03T04:09:38;5.53;;;5.13;;
11568;SDS011;5840;46.894;15.542;2022-08-03T04:12:27;5.20;;;4.80;;
11568;SDS011;5840;46.894;15.542;2022-08-03T04:14:56;6.37;;;5.77;;
11568;SDS011;5840;46.894;15.542;2022-08-03T04:17:24;6.53;;;6.00;;
11568;SDS011;5840;46.894;15.542;2022-08-03T04:19:53;5.13;;;4.80;;
11568;SDS011;5840;46.894;15.542;2022-08-03T04:22:23;6.33;;;5.83;;
11568;SDS011;5840;46.894;15.542;2022-08-03T04:24:54;5.90;;;5.47;;
11568;SDS011;5840;46.894;15.542;2022-08-03T04:27:26;5.87;;;5.50;;
11568;SDS011;5840;46.894;15.542;2022-08-03T04:29:57;5.90;;;5.50;;
11568;SDS011;5840;46.894;15.542;2022-08-03T04:32:27;5.30;;;5.00;;
11568;SDS011;5840;46.894;15.542;2022-08-03T04:34:55;5.90;;;5.50;;
11568;SDS011;5840;46.894;15.542;2022-08-03T04:37:23;5.93;;;5.53;;
11568;SDS011;5840;46.894;15.542;2022-08-03T04:39:58;5.40;;;5.00;;
11568;SDS011;5840;46.894;15.542;2022-08-03T04:42:29;5.57;;;5.07;;
11568;SDS011;5840;46.894;15.542;2022-08-03T04:44:58;5.13;;;4.73;;
11568;SDS011;5840;46.894;15.542;2022-08-03T04:47:25;5.90;;;5.50;;
11568;SDS011;5840;46.894;15.542;2022-08-03T04:49:52;5.60;;;5.10;;
11568;SDS011;5840;46.894;15.542;2022-08-03T04:52:20;5.60;;;5.20;;
11568;SDS011;5840;46.894;15.542;2022-08-03T04:54:47;6.17;;;5.57;;
11568;SDS011;5840;46.894;15.542;2022-08-03T04:57:14;5.53;;;5.13;;
11568;SDS011;5840;46.894;15.542;2022-08-03T04:59:42;6.00;;;5.50;;
11568;SDS011;5840;46.894;15.542;2022-08-03T05:02:09;5.70;;;5.20;;
11568;SDS011;5840;46.894;15.542;2022-08-03T05:04:36;5.30;;;4.90;;
11568;SDS011;5840;46.894;15.542;2022-08-03T05:07:05;5.67;;;5.27;;
11568;SDS011;5840;46.894;15.542;2022-08-03T05:09:32;5.57;;;5.27;;
11568;SDS011;5840;46.894;15.542;2022-08-03T05:12:00;5.53;;;5.10;;
11568;SDS011;5840;46.894;15.542;2022-08-03T05:14:27;6.03;;;5.50;;
11568;SDS011;5840;46.894;15.542;2022-08-03T05:16:55;6.07;;;5.57;;
11568;SDS011;5840;46.894;15.542;2022-08-03T05:19:22;5.40;;;5.00;;
11568;SDS011;5840;46.894;15.542;2022-08-03T05:21:50;5.70;;;5.30;;
11568;SDS011;5840;46.894;15.542;2022-08-03T05:24:17;5.97;;;5.47;;
11568;SDS011;5840;46.894;15.542;2022-08-03T05:26:43;5.47;;;5.13;;
11568;SDS011;5840;46.894;15.542;2022-08-03T05:29:10;5.30;;;4.90;;
11568;SDS011;5840;46.894;15.542;2022-08-03T05:31:37;6.17;;;5.70;;
11568;SDS011;5840;46.894;15.542;2022-08-03T05:34:05;5.97;;;5.40;;
11568;SDS011;5840;46.894;15.542;2022-08-03T05:36:32;5.70;;;5.30;;
11568;SDS011;5840;46.894;15.542;2022-08-03T05:38:59;4.90;;;4.60;;
11568;SDS011;5840;46.894;15.542;2022-08-03T05:41:26;5.20;;;4.83;;
11568;SDS011;5840;46.894;15.542;2022-08-03T05:43:53;5.33;;;4.93;;
11568;SDS011;5840;46.894;15.542;2022-08-03T05:46:22;5.90;;;5.40;;
11568;SDS011;5840;46.894;15.542;2022-08-03T05:48:49;6.13;;;5.60;;
11568;SDS011;5840;46.894;15.542;2022-08-03T05:51:17;5.73;;;5.10;;
11568;SDS011;5840;46.894;15.542;2022-08-03T05:53:44;5.20;;;4.73;;
11568;SDS011;5840;46.894;15.542;2022-08-03T05:56:11;5.50;;;5.10;;
11568;SDS011;5840;46.894;15.542;2022-08-03T05:58:38;5.60;;;5.17;;
11568;SDS011;5840;46.894;15.542;2022-08-03T06:01:05;6.43;;;5.80;;
11568;SDS011;5840;46.894;15.542;2022-08-03T06:03:32;6.03;;;5.63;;
11568;SDS011;5840;46.894;15.542;2022-08-03T06:05:59;6.40;;;6.00;;
11568;SDS011;5840;46.894;15.542;2022-08-03T06:08:27;5.73;;;5.37;;
11568;SDS011;5840;46.894;15.542;2022-08-03T06:10:54;6.20;;;5.70;;
11568;SDS011;5840;46.894;15.542;2022-08-03T06:13:21;5.33;;;5.00;;
11568;SDS011;5840;46.894;15.542;2022-08-03T06:15:48;5.90;;;5.43;;
11568;SDS011;5840;46.894;15.542;2022-08-03T06:18:15;5.40;;;5.00;;
11568;SDS011;5840;46.894;15.542;2022-08-03T06:20:42;5.77;;;5.37;;
11568;SDS011;5840;46.894;15.542;2022-08-03T06:23:09;5.53;;;5.13;;
11568;SDS011;5840;46.894;15.542;2022-08-03T06:25:37;6.13;;;5.63;;
11568;SDS011;5840;46.894;15.542;2022-08-03T06:28:04;5.50;;;5.20;;
11568;SDS011;5840;46.894;15.542;2022-08-03T06:30:31;5.87;;;5.47;;
11568;SDS011;5840;46.894;15.542;2022-08-03T06:32:58;6.20;;;5.60;;
11568;SDS011;5840;46.894;15.542;2022-08-03T06:35:24;5.67;;;5.27;;
11568;SDS011;5840;46.894;15.542;2022-08-03T06:37:52;6.97;;;6.37;;
11568;SDS011;5840;46.894;15.542;2022-08-03T06:40:21;8.17;;;6.10;;
11568;SDS011;5840;46.894;15.542;2022-08-03T06:42:55;6.13;;;5.73;;
11568;SDS011;5840;46.894;15.542;2022-08-03T06:45:22;6.73;;;6.10;;
11568;SDS011;5840;46.894;15.542;2022-08-03T06:47:58;6.60;;;6.10;;
11568;SDS011;5840;46.894;15.542;2022-08-03T06:50:26;6.87;;;6.30;;
11568;SDS011;5840;46.894;15.542;2022-08-03T06:52:53;6.73;;;6.33;;
11568;SDS011;5840;46.894;15.542;2022-08-03T06:55:19;6.63;;;6.10;;
11568;SDS011;5840;46.894;15.542;2022-08-03T06:57:46;5.77;;;5.37;;
11568;SDS011;5840;46.894;15.542;2022-08-03T07:00:15;6.60;;;6.10;;
11568;SDS011;5840;46.894;15.542;2022-08-03T07:02:43;6.20;;;5.70;;
11568;SDS011;5840;46.894;15.542;2022-08-03T07:05:10;6.90;;;5.63;;
11568;SDS011;5840;46.894;15.542;2022-08-03T07:07:37;6.17;;;5.67;;
11568;SDS011;5840;46.894;15.542;2022-08-03T07:10:05;6.90;;;6.30;;
11568;SDS011;5840;46.894;15.542;2022-08-03T07:12:33;6.40;;;5.40;;
11568;SDS011;5840;46.894;15.542;2022-08-03T07:15:01;6.90;;;6.30;;
11568;SDS011;5840;46.894;15.542;2022-08-03T07:17:31;5.80;;;5.40;;
11568;SDS011;5840;46.894;15.542;2022-08-03T07:20:00;6.50;;;5.93;;
11568;SDS011;5840;46.894;15.542;2022-08-03T07:22:30;6.20;;;5.77;;
11568;SDS011;5840;46.894;15.542;2022-08-03T07:24:57;6.10;;;5.70;;
11568;SDS011;5840;46.894;15.542;2022-08-03T07:27:24;5.60;;;5.20;;
11568;SDS011;5840;46.894;15.542;2022-08-03T07:29:52;6.13;;;5.53;;
11568;SDS011;5840;46.894;15.542;2022-08-03T07:32:19;5.57;;;5.10;;
11568;SDS011;5840;46.894;15.542;2022-08-03T07:34:48;5.80;;;5.33;;
11568;SDS011;5840;46.894;15.542;2022-08-03T07:37:15;5.93;;;5.37;;
11568;SDS011;5840;46.894;15.542;2022-08-03T07:39:42;5.53;;;5.07;;
11568;SDS011;5840;46.894;15.542;2022-08-03T07:42:08;4.77;;;4.37;;
11568;SDS011;5840;46.894;15.542;2022-08-03T07:44:35;4.73;;;4.30;;
11568;SDS011;5840;46.894;15.542;2022-08-03T07:47:03;4.57;;;4.27;;
11568;SDS011;5840;46.894;15.542;2022-08-03T07:49:30;6.30;;;4.80;;
11568;SDS011;5840;46.894;15.542;2022-08-03T07:51:58;4.50;;;4.20;;
11568;SDS011;5840;46.894;15.542;2022-08-03T07:54:42;4.97;;;4.53;;
11568;SDS011;5840;46.894;15.542;2022-08-03T07:57:09;5.43;;;5.03;;
11568;SDS011;5840;46.894;15.542;2022-08-03T07:59:36;5.20;;;4.80;;
11568;SDS011;5840;46.894;15.542;2022-08-03T08:02:04;5.23;;;4.83;;
11568;SDS011;5840;46.894;15.542;2022-08-03T08:04:32;4.47;;;4.17;;
11568;SDS011;5840;46.894;15.542;2022-08-03T08:07:00;5.17;;;4.77;;
11568;SDS011;5840;46.894;15.542;2022-08-03T08:09:27;4.93;;;4.53;;
11568;SDS011;5840;46.894;15.542;2022-08-03T08:11:54;4.67;;;4.30;;
11568;SDS011;5840;46.894;15.542;2022-08-03T08:14:21;4.83;;;4.43;;
11568;SDS011;5840;46.894;15.542;2022-08-03T08:16:48;3.87;;;3.67;;
11568;SDS011;5840;46.894;15.542;2022-08-03T08:19:15;4.03;;;3.70;;
11568;SDS011;5840;46.894;15.542;2022-08-03T08:21:43;4.33;;;4.13;;
11568;SDS011;5840;46.894;15.542;2022-08-03T08:24:11;4.83;;;4.43;;
11568;SDS011;5840;46.894;15.542;2022-08-03T08:26:38;4.03;;;3.83;;
11568;SDS011;5840;46.894;15.542;2022-08-03T08:29:05;4.87;;;4.33;;
11568;SDS011;5840;46.894;15.542;2022-08-03T08:31:32;4.07;;;3.80;;
11568;SDS011;5840;46.894;15.542;2022-08-03T08:33:59;4.30;;;4.00;;
11568;SDS011;5840;46.894;15.542;2022-08-03T08:36:29;4.20;;;3.80;;
11568;SDS011;5840;46.894;15.542;2022-08-03T08:38:57;3.87;;;3.57;;
11568;SDS011;5840;46.894;15.542;2022-08-03T08:41:26;4.07;;;3.83;;
11568;SDS011;5840;46.894;15.542;2022-08-03T08:43:53;4.80;;;4.33;;
11568;SDS011;5840;46.894;15.542;2022-08-03T08:46:20;4.90;;;4.50;;
11568;SDS011;5840;46.894;15.542;2022-08-03T08:48:48;4.40;;;3.77;;
11568;SDS011;5840;46.894;15.542;2022-08-03T08:51:15;4.07;;;3.87;;
11568;SDS011;5840;46.894;15.542;2022-08-03T08:53:47;3.80;;;3.60;;
11568;SDS011;5840;46.894;15.542;2022-08-03T08:56:16;3.97;;;3.67;;
11568;SDS011;5840;46.894;15.542;2022-08-03T08:58:48;3.80;;;3.50;;
11568;SDS011;5840;46.894;15.542;2022-08-03T09:01:19;4.07;;;3.77;;
11568;SDS011;5840;46.894;15.542;2022-08-03T09:03:46;3.97;;;3.67;;
11568;SDS011;5840;46.894;15.542;2022-08-03T09:06:14;3.63;;;3.37;;
11568;SDS011;5840;46.894;15.542;2022-08-03T09:08:41;3.70;;;3.40;;
11568;SDS011;5840;46.894;15.542;2022-08-03T09:11:08;4.13;;;3.83;;
11568;SDS011;5840;46.894;15.542;2022-08-03T09:13:35;3.90;;;3.70;;
11568;SDS011;5840;46.894;15.542;2022-08-03T09:16:10;3.97;;;3.67;;
11568;SDS011;5840;46.894;15.542;2022-08-03T09:18:38;3.80;;;3.50;;
11568;SDS011;5840;46.894;15.542;2022-08-03T09:21:16;4.03;;;3.63;;
11568;SDS011;5840;46.894;15.542;2022-08-03T09:23:46;3.60;;;3.40;;
11568;SDS011;5840;46.894;15.542;2022-08-03T09:26:21;3.87;;;3.30;;
11568;SDS011;5840;46.894;15.542;2022-08-03T09:28:55;3.50;;;3.20;;
11568;SDS011;5840;46.894;15.542;2022-08-03T09:31:31;3.40;;;3.20;;
11568;SDS011;5840;46.894;15.542;2022-08-03T09:34:00;3.40;;;3.20;;
11568;SDS011;5840;46.894;15.542;2022-08-03T09:36:38;3.70;;;3.30;;
11568;SDS011;5840;46.894;15.542;2022-08-03T09:39:07;3.50;;;3.20;;
11568;SDS011;5840;46.894;15.542;2022-08-03T09:41:36;3.37;;;3.07;;
11568;SDS011;5840;46.894;15.542;2022-08-03T09:44:04;3.20;;;2.90;;
11568;SDS011;5840;46.894;15.542;2022-08-03T09:46:46;3.30;;;3.10;;
11568;SDS011;5840;46.894;15.542;2022-08-03T09:49:14;6.07;;;3.77;;
11568;SDS011;5840;46.894;15.542;2022-08-03T09:51:42;2.93;;;2.73;;
11568;SDS011;5840;46.894;15.542;2022-08-03T09:54:09;3.00;;;2.90;;
11568;SDS011;5840;46.894;15.542;2022-08-03T09:56:37;3.77;;;2.70;;
11568;SDS011;5840;46.894;15.542;2022-08-03T09:59:05;3.03;;;2.67;;
11568;SDS011;5840;46.894;15.542;2022-08-03T10:01:32;3.03;;;2.83;;
11568;SDS011;5840;46.894;15.542;2022-08-03T10:04:01;2.93;;;2.60;;
11568;SDS011;5840;46.894;15.542;2022-08-03T10:06:28;3.10;;;2.90;;
11568;SDS011;5840;46.894;15.542;2022-08-03T10:09:05;2.80;;;2.70;;
11568;SDS011;5840;46.894;15.542;2022-08-03T10:11:34;2.70;;;2.50;;
11568;SDS011;5840;46.894;15.542;2022-08-03T10:14:03;2.80;;;2.60;;
11568;SDS011;5840;46.894;15.542;2022-08-03T10:16:32;2.53;;;2.43;;
11568;SDS011;5840;46.894;15.542;2022-08-03T10:19:02;2.80;;;2.60;;
11568;SDS011;5840;46.894;15.542;2022-08-03T10:21:31;2.27;;;2.17;;
11568;SDS011;5840;46.894;15.542;2022-08-03T10:24:01;2.80;;;2.17;;
11568;SDS011;5840;46.894;15.542;2022-08-03T10:26:30;2.43;;;2.23;;
11568;SDS011;5840;46.894;15.542;2022-08-03T10:28:58;2.47;;;2.27;;
11568;SDS011;5840;46.894;15.542;2022-08-03T10:31:30;2.20;;;2.00;;
11568;SDS011;5840;46.894;15.542;2022-08-03T10:34:02;2.37;;;2.27;;
11568;SDS011;5840;46.894;15.542;2022-08-03T10:36:31;2.23;;;2.13;;
11568;SDS011;5840;46.894;15.542;2022-08-03T10:39:03;2.10;;;2.00;;
11568;SDS011;5840;46.894;15.542;2022-08-03T10:41:30;2.67;;;2.37;;
11568;SDS011;5840;46.894;15.542;2022-08-03T10:44:02;2.60;;;2.40;;
11568;SDS011;5840;46.894;15.542;2022-08-03T10:46:31;2.50;;;2.30;;
11568;SDS011;5840;46.894;15.542;2022-08-03T10:49:01;2.40;;;2.30;;
11568;SDS011;5840;46.894;15.542;2022-08-03T10:51:29;2.80;;;2.70;;
11568;SDS011;5840;46.894;15.542;2022-08-03T10:53:57;2.60;;;2.40;;
11568;SDS011;5840;46.894;15.542;2022-08-03T10:56:37;2.43;;;2.23;;
11568;SDS011;5840;46.894;15.542;2022-08-03T11:05:32;2.87;;;2.13;;
11568;SDS011;5840;46.894;15.542;2022-08-03T11:08:20;2.37;;;2.20;;
11568;SDS011;5840;46.894;15.542;2022-08-03T11:10:49;2.30;;;2.20;;
11568;SDS011;5840;46.894;15.542;2022-08-03T11:13:19;2.13;;;2.03;;
11568;SDS011;5840;46.894;15.542;2022-08-03T11:15:48;2.70;;;2.50;;
11568;SDS011;5840;46.894;15.542;2022-08-03T11:18:18;2.43;;;2.33;;
11568;SDS011;5840;46.894;15.542;2022-08-03T11:20:48;2.30;;;2.20;;
11568;SDS011;5840;46.894;15.542;2022-08-03T11:23:16;3.30;;;2.20;;
11568;SDS011;5840;46.894;15.542;2022-08-03T11:28:34;2.60;;;2.40;;
11568;SDS011;5840;46.894;15.542;2022-08-03T11:34:14;2.30;;;2.10;;
11568;SDS011;5840;46.894;15.542;2022-08-03T11:39:43;2.50;;;2.40;;
11568;SDS011;5840;46.894;15.542;2022-08-03T11:45:05;2.10;;;2.00;;
11568;SDS011;5840;46.894;15.542;2022-08-03T11:47:35;2.20;;;2.10;;
11568;SDS011;5840;46.894;15.542;2022-08-03T11:50:03;2.13;;;2.03;;
11568;SDS011;5840;46.894;15.542;2022-08-03T11:52:33;2.23;;;2.13;;
11568;SDS011;5840;46.894;15.542;2022-08-03T11:55:02;3.20;;;2.47;;
11568;SDS011;5840;46.894;15.542;2022-08-03T11:57:35;2.50;;;2.30;;
11568;SDS011;5840;46.894;15.542;2022-08-03T12:00:02;2.37;;;2.10;;
11568;SDS011;5840;46.894;15.542;2022-08-03T12:02:52;2.33;;;2.10;;
11568;SDS011;5840;46.894;15.542;2022-08-03T12:08:16;1.87;;;1.77;;
11568;SDS011;5840;46.894;15.542;2022-08-03T12:10:46;3.17;;;2.20;;
11568;SDS011;5840;46.894;15.542;2022-08-03T12:13:16;3.73;;;2.43;;
11568;SDS011;5840;46.894;15.542;2022-08-03T12:15:48;2.10;;;2.00;;
11568;SDS011;5840;46.894;15.542;2022-08-03T12:18:17;2.70;;;2.50;;
11568;SDS011;5840;46.894;15.542;2022-08-03T12:20:46;2.23;;;2.13;;
11568;SDS011;5840;46.894;15.542;2022-08-03T12:23:13;2.60;;;2.40;;
11568;SDS011;5840;46.894;15.542;2022-08-03T12:25:41;2.60;;;2.40;;
11568;SDS011;5840;46.894;15.542;2022-08-03T12:28:11;2.80;;;2.60;;
11568;SDS011;5840;46.894;15.542;2022-08-03T12:30:43;2.50;;;2.23;;
11568;SDS011;5840;46.894;15.542;2022-08-03T12:33:15;2.93;;;2.40;;
11568;SDS011;5840;46.894;15.542;2022-08-03T12:35:58;2.40;;;2.30;;
11568;SDS011;5840;46.894;15.542;2022-08-03T12:38:29;2.23;;;2.13;;
11568;SDS011;5840;46.894;15.542;2022-08-03T12:40:58;2.20;;;2.10;;
11568;SDS011;5840;46.894;15.542;2022-08-03T12:43:27;2.20;;;2.10;;
11568;SDS011;5840;46.894;15.542;2022-08-03T12:46:07;2.40;;;2.30;;
11568;SDS011;5840;46.894;15.542;2022-08-03T12:51:25;3.17;;;2.40;;
11568;SDS011;5840;46.894;15.542;2022-08-03T12:53:52;2.50;;;2.30;;
11568;SDS011;5840;46.894;15.542;2022-08-03T12:56:20;2.50;;;2.40;;
11568;SDS011;5840;46.894;15.542;2022-08-03T12:58:48;2.77;;;2.20;;
11568;SDS011;5840;46.894;15.542;2022-08-03T13:01:15;2.50;;;2.30;;
11568;SDS011;5840;46.894;15.542;2022-08-03T13:03:43;2.27;;;2.10;;
11568;SDS011;5840;46.894;15.542;2022-08-03T13:06:12;2.23;;;2.13;;
11568;SDS011;5840;46.894;15.542;2022-08-03T13:08:40;2.20;;;2.10;;
11568;SDS011;5840;46.894;15.542;2022-08-03T13:11:17;2.80;;;2.67;;
11568;SDS011;5840;46.894;15.542;2022-08-03T13:13:45;2.63;;;2.43;;
11568;SDS011;5840;46.894;15.542;2022-08-03T13:16:13;2.33;;;2.17;;
11568;SDS011;5840;46.894;15.542;2022-08-03T13:18:40;2.30;;;2.20;;
11568;SDS011;5840;46.894;15.542;2022-08-03T13:21:07;2.10;;;2.00;;
11568;SDS011;5840;46.894;15.542;2022-08-03T13:23:34;2.30;;;2.07;;
11568;SDS011;5840;46.894;15.542;2022-08-03T13:26:01;3.67;;;2.27;;
11568;SDS011;5840;46.894;15.542;2022-08-03T13:28:30;2.20;;;2.10;;
11568;SDS011;5840;46.894;15.542;2022-08-03T13:30:57;2.20;;;2.10;;
11568;SDS011;5840;46.894;15.542;2022-08-03T13:33:26;2.07;;;1.97;;
11568;SDS011;5840;46.894;15.542;2022-08-03T13:35:53;2.20;;;2.10;;
11568;SDS011;5840;46.894;15.542;2022-08-03T13:38:20;1.90;;;1.80;;
11568;SDS011;5840;46.894;15.542;2022-08-03T13:40:47;2.20;;;2.10;;
11568;SDS011;5840;46.894;15.542;2022-08-03T13:43:16;2.00;;;1.90;;
11568;SDS011;5840;46.894;15.542;2022-08-03T13:45:43;2.03;;;1.93;;
11568;SDS011;5840;46.894;15.542;2022-08-03T13:48:10;2.23;;;2.13;;
11568;SDS011;5840;46.894;15.542;2022-08-03T13:50:38;2.27;;;2.17;;
11568;SDS011;5840;46.894;15.542;2022-08-03T13:53:05;2.40;;;2.20;;
11568;SDS011;5840;46.894;15.542;2022-08-03T13:55:32;2.00;;;1.90;;
11568;SDS011;5840;46.894;15.542;2022-08-03T13:57:59;2.07;;;1.97;;
11568;SDS011;5840;46.894;15.542;2022-08-03T14:00:26;2.40;;;2.20;;
11568;SDS011;5840;46.894;15.542;2022-08-03T14:02:54;2.83;;;2.17;;
11568;SDS011;5840;46.894;15.542;2022-08-03T14:05:22;2.23;;;2.13;;
11568;SDS011;5840;46.894;15.542;2022-08-03T14:07:51;1.93;;;1.80;;
11568;SDS011;5840;46.894;15.542;2022-08-03T14:10:18;1.90;;;1.80;;
11568;SDS011;5840;46.894;15.542;2022-08-03T14:12:45;2.13;;;1.93;;
11568;SDS011;5840;46.894;15.542;2022-08-03T14:15:12;1.90;;;1.80;;
11568;SDS011;5840;46.894;15.542;2022-08-03T14:17:39;2.20;;;2.10;;
11568;SDS011;5840;46.894;15.542;2022-08-03T14:20:06;2.13;;;1.93;;
11568;SDS011;5840;46.894;15.542;2022-08-03T14:22:34;2.00;;;1.90;;
11568;SDS011;5840;46.894;15.542;2022-08-03T14:25:02;2.30;;;2.10;;
11568;SDS011;5840;46.894;15.542;2022-08-03T14:27:30;1.97;;;1.87;;
11568;SDS011;5840;46.894;15.542;2022-08-03T14:29:57;2.33;;;2.23;;
11568;SDS011;5840;46.894;15.542;2022-08-03T14:32:25;2.40;;;2.20;;
11568;SDS011;5840;46.894;15.542;2022-08-03T14:34:52;2.13;;;2.03;;
11568;SDS011;5840;46.894;15.542;2022-08-03T14:37:19;2.13;;;2.03;;
11568;SDS011;5840;46.894;15.542;2022-08-03T14:39:46;2.27;;;2.10;;
11568;SDS011;5840;46.894;15.542;2022-08-03T14:42:14;2.10;;;2.00;;
11568;SDS011;5840;46.894;15.542;2022-08-03T14:44:41;2.50;;;2.30;;
11568;SDS011;5840;46.894;15.542;2022-08-03T14:47:08;2.13;;;2.03;;
11568;SDS011;5840;46.894;15.542;2022-08-03T14:49:35;2.10;;;1.90;;
11568;SDS011;5840;46.894;15.542;2022-08-03T14:52:02;1.77;;;1.70;;
11568;SDS011;5840;46.894;15.542;2022-08-03T14:54:30;2.23;;;1.93;;
11568;SDS011;5840;46.894;15.542;2022-08-03T14:56:57;2.30;;;2.17;;
11568;SDS011;5840;46.894;15.542;2022-08-03T14:59:25;2.30;;;2.10;;
11568;SDS011;5840;46.894;15.542;2022-08-03T15:01:52;2.60;;;2.40;;
11568;SDS011;5840;46.894;15.542;2022-08-03T15:04:19;2.30;;;2.20;;
11568;SDS011;5840;46.894;15.542;2022-08-03T15:06:46;2.53;;;2.20;;
11568;SDS011;5840;46.894;15.542;2022-08-03T15:09:13;2.30;;;2.20;;
11568;SDS011;5840;46.894;15.542;2022-08-03T15:11:40;4.50;;;2.43;;
11568;SDS011;5840;46.894;15.542;2022-08-03T15:14:08;2.17;;;2.07;;
11568;SDS011;5840;46.894;15.542;2022-08-03T15:16:36;4.13;;;2.57;;
11568;SDS011;5840;46.894;15.542;2022-08-03T15:19:03;2.20;;;2.10;;
11568;SDS011;5840;46.894;15.542;2022-08-03T15:21:30;2.97;;;2.47;;